sensor_id;sensor_type;location;lat;lon;timestamp;temperature;humidity
17421;DHT22;8828;48.800;9.540;2023-05-08T00:02:07;17.00;99.90
17421;DHT22;8828;48.800;9.540;2023-05-08T00:04:35;17.00;99.90
17421;DHT22;8828;48.800;9.540;2023-05-08T00:07:02;17.10;99.90
17421;DHT22;8828;48.800;9.540;2023-05-08T00:09:30;17.10;99.90
17421;DHT22;8828;48.800;9.540;2023-05-08T00:11:58;17.10;99.90
17421;DHT22;8828;48.800;9.540;2023-05-08T00:14:26;17.10;99.90
17421;DHT22;8828;48.800;9.540;2023-05-08T00:16:53;17.10;99.90
17421;DHT22;8828;48.800;9.540;2023-05-08T00:19:23;17.10;99.90
17421;DHT22;8828;48.800;9.540;2023-05-08T00:21:51;17.10;99.90
17421;DHT22;8828;48.800;9.540;2023-05-08T00:24:18;17.10;99.90
17421;DHT22;8828;48.800;9.540;2023-05-08T00:26:46;17.10;99.90
17421;DHT22;8828;48.800;9.540;2023-05-08T00:29:14;17.10;99.90
17421;DHT22;8828;48.800;9.540;2023-05-08T00:31:42;17.10;99.90
17421;DHT22;8828;48.800;9.540;2023-05-08T00:34:10;17.10;99.90
17421;DHT22;8828;48.800;9.540;2023-05-08T00:36:39;17.10;99.90
17421;DHT22;8828;48.800;9.540;2023-05-08T00:39:07;17.10;99.90
17421;DHT22;8828;48.800;9.540;2023-05-08T00:41:35;17.00;99.90
17421;DHT22;8828;48.800;9.540;2023-05-08T00:44:03;17.00;99.90
17421;DHT22;8828;48.800;9.540;2023-05-08T00:46:31;17.00;99.90
17421;DHT22;8828;48.800;9.540;2023-05-08T00:49:16;17.00;99.90
17421;DHT22;8828;48.800;9.540;2023-05-08T00:51:46;16.90;99.90
17421;DHT22;8828;48.800;9.540;2023-05-08T00:54:16;16.90;99.90
17421;DHT22;8828;48.800;9.540;2023-05-08T00:56:44;16.90;99.90
17421;DHT22;8828;48.800;9.540;2023-05-08T00:59:12;16.90;99.90
17421;DHT22;8828;48.800;9.540;2023-05-08T01:01:40;16.90;99.90
17421;DHT22;8828;48.800;9.540;2023-05-08T01:04:08;16.90;99.90
17421;DHT22;8828;48.800;9.540;2023-05-08T01:06:36;16.80;99.90
17421;DHT22;8828;48.800;9.540;2023-05-08T01:09:05;16.80;99.90
17421;DHT22;8828;48.800;9.540;2023-05-08T01:11:36;16.80;99.90
17421;DHT22;8828;48.800;9.540;2023-05-08T01:14:06;16.80;99.90
17421;DHT22;8828;48.800;9.540;2023-05-08T01:16:38;16.80;99.90
17421;DHT22;8828;48.800;9.540;2023-05-08T01:19:13;16.80;99.90
17421;DHT22;8828;48.800;9.540;2023-05-08T01:21:48;16.80;99.90
17421;DHT22;8828;48.800;9.540;2023-05-08T01:24:29;16.80;99.90
17421;DHT22;8828;48.800;9.540;2023-05-08T01:27:08;16.80;99.90
17421;DHT22;8828;48.800;9.540;2023-05-08T01:29:55;16.80;99.90
17421;DHT22;8828;48.800;9.540;2023-05-08T01:32:30;16.80;99.90
17421;DHT22;8828;48.800;9.540;2023-05-08T01:34:59;16.80;99.90
17421;DHT22;8828;48.800;9.540;2023-05-08T01:37:31;16.80;99.90
17421;DHT22;8828;48.800;9.540;2023-05-08T01:40:06;16.80;99.90
17421;DHT22;8828;48.800;9.540;2023-05-08T01:42:38;16.80;99.90
17421;DHT22;8828;48.800;9.540;2023-05-08T01:45:10;16.90;99.90
17421;DHT22;8828;48.800;9.540;2023-05-08T01:47:41;16.90;99.90
17421;DHT22;8828;48.800;9.540;2023-05-08T01:50:13;16.90;99.90
17421;DHT22;8828;48.800;9.540;2023-05-08T01:52:44;16.80;99.90
17421;DHT22;8828;48.800;9.540;2023-05-08T01:55:15;16.80;99.90
17421;DHT22;8828;48.800;9.540;2023-05-08T01:57:45;16.80;99.90
17421;DHT22;8828;48.800;9.540;2023-05-08T02:00:14;16.80;99.90
17421;DHT22;8828;48.800;9.540;2023-05-08T02:02:43;16.80;99.90
17421;DHT22;8828;48.800;9.540;2023-05-08T02:05:11;16.80;99.90
17421;DHT22;8828;48.800;9.540;2023-05-08T02:07:40;16.80;99.90
17421;DHT22;8828;48.800;9.540;2023-05-08T02:10:07;16.80;99.90
17421;DHT22;8828;48.800;9.540;2023-05-08T02:12:37;16.80;99.90
17421;DHT22;8828;48.800;9.540;2023-05-08T02:15:05;16.80;99.90
17421;DHT22;8828;48.800;9.540;2023-05-08T02:17:35;16.80;99.90
17421;DHT22;8828;48.800;9.540;2023-05-08T02:20:06;16.80;99.90
17421;DHT22;8828;48.800;9.540;2023-05-08T02:22:34;16.80;99.90
17421;DHT22;8828;48.800;9.540;2023-05-08T02:25:03;16.70;99.90
17421;DHT22;8828;48.800;9.540;2023-05-08T02:27:30;16.70;99.90
17421;DHT22;8828;48.800;9.540;2023-05-08T02:29:59;16.70;99.90
17421;DHT22;8828;48.800;9.540;2023-05-08T02:32:27;16.70;99.90
17421;DHT22;8828;48.800;9.540;2023-05-08T02:34:56;16.70;99.90
17421;DHT22;8828;48.800;9.540;2023-05-08T02:37:30;16.70;99.90
17421;DHT22;8828;48.800;9.540;2023-05-08T02:39:59;16.70;99.90
17421;DHT22;8828;48.800;9.540;2023-05-08T02:42:28;16.70;99.90
17421;DHT22;8828;48.800;9.540;2023-05-08T02:44:56;16.70;99.90
17421;DHT22;8828;48.800;9.540;2023-05-08T02:47:24;16.70;99.90
17421;DHT22;8828;48.800;9.540;2023-05-08T02:49:55;16.70;99.90
17421;DHT22;8828;48.800;9.540;2023-05-08T02:52:27;16.70;99.90
17421;DHT22;8828;48.800;9.540;2023-05-08T02:54:57;16.70;99.90
17421;DHT22;8828;48.800;9.540;2023-05-08T02:57:30;16.60;99.90
17421;DHT22;8828;48.800;9.540;2023-05-08T03:00:02;16.60;99.90
17421;DHT22;8828;48.800;9.540;2023-05-08T03:02:31;16.70;99.90
17421;DHT22;8828;48.800;9.540;2023-05-08T03:05:01;16.70;99.90
17421;DHT22;8828;48.800;9.540;2023-05-08T03:07:30;16.70;99.90
17421;DHT22;8828;48.800;9.540;2023-05-08T03:10:01;16.60;99.90
17421;DHT22;8828;48.800;9.540;2023-05-08T03:12:30;16.60;99.90
17421;DHT22;8828;48.800;9.540;2023-05-08T03:15:02;16.60;99.90
17421;DHT22;8828;48.800;9.540;2023-05-08T03:17:31;16.60;99.90
17421;DHT22;8828;48.800;9.540;2023-05-08T03:20:01;16.60;99.90
17421;DHT22;8828;48.800;9.540;2023-05-08T03:22:31;16.60;99.90
17421;DHT22;8828;48.800;9.540;2023-05-08T03:25:03;16.60;99.90
17421;DHT22;8828;48.800;9.540;2023-05-08T03:27:31;16.60;99.90
17421;DHT22;8828;48.800;9.540;2023-05-08T03:29:59;16.60;99.90
17421;DHT22;8828;48.800;9.540;2023-05-08T03:32:28;16.60;99.90
17421;DHT22;8828;48.800;9.540;2023-05-08T03:34:57;16.60;99.90
17421;DHT22;8828;48.800;9.540;2023-05-08T03:37:25;16.60;99.90
17421;DHT22;8828;48.800;9.540;2023-05-08T03:39:53;16.60;99.90
17421;DHT22;8828;48.800;9.540;2023-05-08T03:42:23;16.60;99.90
17421;DHT22;8828;48.800;9.540;2023-05-08T03:44:52;16.60;99.90
17421;DHT22;8828;48.800;9.540;2023-05-08T03:47:20;16.60;99.90
17421;DHT22;8828;48.800;9.540;2023-05-08T03:49:48;16.60;99.90
17421;DHT22;8828;48.800;9.540;2023-05-08T03:52:16;16.60;99.90
17421;DHT22;8828;48.800;9.540;2023-05-08T03:54:44;16.50;99.90
17421;DHT22;8828;48.800;9.540;2023-05-08T03:57:12;16.50;99.90
17421;DHT22;8828;48.800;9.540;2023-05-08T03:59:43;16.50;99.90
17421;DHT22;8828;48.800;9.540;2023-05-08T04:02:16;16.50;99.90
17421;DHT22;8828;48.800;9.540;2023-05-08T04:04:46;16.50;99.90
17421;DHT22;8828;48.800;9.540;2023-05-08T04:07:18;16.60;99.90
17421;DHT22;8828;48.800;9.540;2023-05-08T04:09:50;16.50;99.90
17421;DHT22;8828;48.800;9.540;2023-05-08T04:12:21;16.50;99.90
17421;DHT22;8828;48.800;9.540;2023-05-08T04:14:55;16.50;99.90
17421;DHT22;8828;48.800;9.540;2023-05-08T04:17:27;16.50;99.90
17421;DHT22;8828;48.800;9.540;2023-05-08T04:19:57;16.50;99.90
17421;DHT22;8828;48.800;9.540;2023-05-08T04:22:27;16.50;99.90
17421;DHT22;8828;48.800;9.540;2023-05-08T04:24:56;16.40;99.90
17421;DHT22;8828;48.800;9.540;2023-05-08T04:27:25;16.50;99.90
17421;DHT22;8828;48.800;9.540;2023-05-08T04:29:54;16.50;99.90
17421;DHT22;8828;48.800;9.540;2023-05-08T04:32:22;16.40;99.90
17421;DHT22;8828;48.800;9.540;2023-05-08T04:34:50;16.40;99.90
17421;DHT22;8828;48.800;9.540;2023-05-08T04:37:23;16.40;99.90
17421;DHT22;8828;48.800;9.540;2023-05-08T04:39:51;16.40;99.90
17421;DHT22;8828;48.800;9.540;2023-05-08T04:42:19;16.40;99.90
17421;DHT22;8828;48.800;9.540;2023-05-08T04:44:47;16.40;99.90
17421;DHT22;8828;48.800;9.540;2023-05-08T04:47:16;16.40;99.90
17421;DHT22;8828;48.800;9.540;2023-05-08T04:49:44;16.40;99.90
17421;DHT22;8828;48.800;9.540;2023-05-08T04:52:12;16.40;99.90
17421;DHT22;8828;48.800;9.540;2023-05-08T04:54:41;16.40;99.90
17421;DHT22;8828;48.800;9.540;2023-05-08T04:57:08;16.40;99.90
17421;DHT22;8828;48.800;9.540;2023-05-08T04:59:36;16.40;99.90
17421;DHT22;8828;48.800;9.540;2023-05-08T05:02:04;16.40;99.90
17421;DHT22;8828;48.800;9.540;2023-05-08T05:04:35;16.40;99.90
17421;DHT22;8828;48.800;9.540;2023-05-08T05:07:03;16.40;99.90
17421;DHT22;8828;48.800;9.540;2023-05-08T05:09:31;16.40;99.90
17421;DHT22;8828;48.800;9.540;2023-05-08T05:12:02;16.40;99.90
17421;DHT22;8828;48.800;9.540;2023-05-08T05:14:30;16.40;99.90
17421;DHT22;8828;48.800;9.540;2023-05-08T05:16:58;16.40;99.90
17421;DHT22;8828;48.800;9.540;2023-05-08T05:19:25;16.50;99.90
17421;DHT22;8828;48.800;9.540;2023-05-08T05:21:55;16.50;99.90
17421;DHT22;8828;48.800;9.540;2023-05-08T05:24:22;16.50;99.90
17421;DHT22;8828;48.800;9.540;2023-05-08T05:26:50;16.50;99.90
17421;DHT22;8828;48.800;9.540;2023-05-08T05:29:18;16.50;99.90
17421;DHT22;8828;48.800;9.540;2023-05-08T05:31:46;16.50;99.90
17421;DHT22;8828;48.800;9.540;2023-05-08T05:34:14;16.50;99.90
17421;DHT22;8828;48.800;9.540;2023-05-08T05:36:41;16.50;99.90
17421;DHT22;8828;48.800;9.540;2023-05-08T05:39:10;16.50;99.90
17421;DHT22;8828;48.800;9.540;2023-05-08T05:41:38;16.60;99.90
17421;DHT22;8828;48.800;9.540;2023-05-08T05:44:09;16.60;99.90
17421;DHT22;8828;48.800;9.540;2023-05-08T05:46:37;16.60;99.90
17421;DHT22;8828;48.800;9.540;2023-05-08T05:49:08;16.60;99.90
17421;DHT22;8828;48.800;9.540;2023-05-08T05:51:37;16.70;99.90
17421;DHT22;8828;48.800;9.540;2023-05-08T05:54:05;16.70;99.90
17421;DHT22;8828;48.800;9.540;2023-05-08T05:56:34;16.70;99.90
17421;DHT22;8828;48.800;9.540;2023-05-08T05:59:01;16.70;99.90
17421;DHT22;8828;48.800;9.540;2023-05-08T06:01:29;16.70;99.90
17421;DHT22;8828;48.800;9.540;2023-05-08T06:03:57;16.70;99.90
17421;DHT22;8828;48.800;9.540;2023-05-08T06:06:25;16.70;99.90
17421;DHT22;8828;48.800;9.540;2023-05-08T06:08:53;16.80;99.90
17421;DHT22;8828;48.800;9.540;2023-05-08T06:11:21;16.70;99.90
17421;DHT22;8828;48.800;9.540;2023-05-08T06:13:50;16.80;99.90
17421;DHT22;8828;48.800;9.540;2023-05-08T06:16:18;16.80;99.90
17421;DHT22;8828;48.800;9.540;2023-05-08T06:18:48;16.80;99.90
17421;DHT22;8828;48.800;9.540;2023-05-08T06:21:16;16.80;99.90
17421;DHT22;8828;48.800;9.540;2023-05-08T06:23:44;16.80;99.90
17421;DHT22;8828;48.800;9.540;2023-05-08T06:26:12;16.80;99.90
17421;DHT22;8828;48.800;9.540;2023-05-08T06:28:39;16.80;99.90
17421;DHT22;8828;48.800;9.540;2023-05-08T06:31:09;16.80;99.90
17421;DHT22;8828;48.800;9.540;2023-05-08T06:33:36;16.80;99.90
17421;DHT22;8828;48.800;9.540;2023-05-08T06:36:04;16.90;99.90
17421;DHT22;8828;48.800;9.540;2023-05-08T06:38:32;16.90;99.90
17421;DHT22;8828;48.800;9.540;2023-05-08T06:41:00;16.90;99.90
17421;DHT22;8828;48.800;9.540;2023-05-08T06:43:28;17.00;99.90
17421;DHT22;8828;48.800;9.540;2023-05-08T06:45:56;17.00;99.90
17421;DHT22;8828;48.800;9.540;2023-05-08T06:48:25;17.00;99.90
17421;DHT22;8828;48.800;9.540;2023-05-08T06:50:54;17.00;99.90
17421;DHT22;8828;48.800;9.540;2023-05-08T06:53:22;17.00;99.90
17421;DHT22;8828;48.800;9.540;2023-05-08T06:55:50;17.00;99.90
17421;DHT22;8828;48.800;9.540;2023-05-08T06:58:18;17.00;99.90
17421;DHT22;8828;48.800;9.540;2023-05-08T07:00:45;17.00;99.90
17421;DHT22;8828;48.800;9.540;2023-05-08T07:03:13;17.00;99.90
17421;DHT22;8828;48.800;9.540;2023-05-08T07:05:43;17.00;99.90
17421;DHT22;8828;48.800;9.540;2023-05-08T07:08:10;17.00;99.90
17421;DHT22;8828;48.800;9.540;2023-05-08T07:10:38;17.00;99.90
17421;DHT22;8828;48.800;9.540;2023-05-08T07:13:06;17.00;99.90
17421;DHT22;8828;48.800;9.540;2023-05-08T07:15:34;17.00;99.90
17421;DHT22;8828;48.800;9.540;2023-05-08T07:18:02;17.00;99.90
17421;DHT22;8828;48.800;9.540;2023-05-08T07:20:29;17.00;99.90
17421;DHT22;8828;48.800;9.540;2023-05-08T07:22:58;17.00;99.90
17421;DHT22;8828;48.800;9.540;2023-05-08T07:25:26;17.10;99.90
17421;DHT22;8828;48.800;9.540;2023-05-08T07:27:54;17.10;99.90
17421;DHT22;8828;48.800;9.540;2023-05-08T07:30:25;17.10;99.90
17421;DHT22;8828;48.800;9.540;2023-05-08T07:32:53;17.10;99.90
17421;DHT22;8828;48.800;9.540;2023-05-08T07:35:21;17.20;99.90
17421;DHT22;8828;48.800;9.540;2023-05-08T07:37:49;17.20;99.90
17421;DHT22;8828;48.800;9.540;2023-05-08T07:40:18;17.20;99.90
17421;DHT22;8828;48.800;9.540;2023-05-08T07:42:46;17.20;99.90
17421;DHT22;8828;48.800;9.540;2023-05-08T07:45:14;17.20;99.90
17421;DHT22;8828;48.800;9.540;2023-05-08T07:47:48;17.30;99.90
17421;DHT22;8828;48.800;9.540;2023-05-08T07:50:17;17.30;99.90
17421;DHT22;8828;48.800;9.540;2023-05-08T07:52:44;17.30;99.90
17421;DHT22;8828;48.800;9.540;2023-05-08T07:55:15;17.40;99.90
17421;DHT22;8828;48.800;9.540;2023-05-08T07:57:44;17.40;99.90
17421;DHT22;8828;48.800;9.540;2023-05-08T08:00:13;17.40;99.90
17421;DHT22;8828;48.800;9.540;2023-05-08T08:02:41;17.40;99.90
17421;DHT22;8828;48.800;9.540;2023-05-08T08:05:09;17.40;99.90
17421;DHT22;8828;48.800;9.540;2023-05-08T08:07:37;17.50;99.90
17421;DHT22;8828;48.800;9.540;2023-05-08T08:10:06;17.50;99.90
17421;DHT22;8828;48.800;9.540;2023-05-08T08:12:34;17.50;99.90
17421;DHT22;8828;48.800;9.540;2023-05-08T08:15:04;17.60;99.90
17421;DHT22;8828;48.800;9.540;2023-05-08T08:17:32;17.60;99.90
17421;DHT22;8828;48.800;9.540;2023-05-08T08:20:00;17.60;99.90
17421;DHT22;8828;48.800;9.540;2023-05-08T08:22:28;17.60;99.90
17421;DHT22;8828;48.800;9.540;2023-05-08T08:24:55;17.70;99.90
17421;DHT22;8828;48.800;9.540;2023-05-08T08:27:23;17.80;99.90
17421;DHT22;8828;48.800;9.540;2023-05-08T08:29:51;17.80;99.90
17421;DHT22;8828;48.800;9.540;2023-05-08T08:32:39;17.80;99.90
17421;DHT22;8828;48.800;9.540;2023-05-08T08:35:07;17.90;99.90
17421;DHT22;8828;48.800;9.540;2023-05-08T08:37:36;17.90;99.90
17421;DHT22;8828;48.800;9.540;2023-05-08T08:40:04;17.90;99.90
17421;DHT22;8828;48.800;9.540;2023-05-08T08:42:32;18.00;99.90
17421;DHT22;8828;48.800;9.540;2023-05-08T08:44:59;18.00;99.90
17421;DHT22;8828;48.800;9.540;2023-05-08T08:47:28;18.00;99.90
17421;DHT22;8828;48.800;9.540;2023-05-08T08:49:57;18.10;99.90
17421;DHT22;8828;48.800;9.540;2023-05-08T08:52:29;18.10;99.90
17421;DHT22;8828;48.800;9.540;2023-05-08T08:54:59;18.20;99.90
17421;DHT22;8828;48.800;9.540;2023-05-08T08:57:27;18.20;99.90
17421;DHT22;8828;48.800;9.540;2023-05-08T08:59:58;18.10;99.90
17421;DHT22;8828;48.800;9.540;2023-05-08T09:02:29;18.10;99.90
17421;DHT22;8828;48.800;9.540;2023-05-08T09:04:59;18.10;99.90
17421;DHT22;8828;48.800;9.540;2023-05-08T09:07:27;18.10;99.90
17421;DHT22;8828;48.800;9.540;2023-05-08T09:09:55;18.10;99.90
17421;DHT22;8828;48.800;9.540;2023-05-08T09:12:24;18.10;99.90
17421;DHT22;8828;48.800;9.540;2023-05-08T09:14:51;18.10;99.90
17421;DHT22;8828;48.800;9.540;2023-05-08T09:17:19;18.10;99.90
17421;DHT22;8828;48.800;9.540;2023-05-08T09:19:48;18.10;99.90
17421;DHT22;8828;48.800;9.540;2023-05-08T09:22:17;18.10;99.90
17421;DHT22;8828;48.800;9.540;2023-05-08T09:24:54;18.10;99.90
17421;DHT22;8828;48.800;9.540;2023-05-08T09:27:23;18.10;99.90
17421;DHT22;8828;48.800;9.540;2023-05-08T09:29:57;18.10;99.90
17421;DHT22;8828;48.800;9.540;2023-05-08T09:32:25;18.20;99.90
17421;DHT22;8828;48.800;9.540;2023-05-08T09:34:53;18.30;99.90
17421;DHT22;8828;48.800;9.540;2023-05-08T09:37:23;18.40;99.90
17421;DHT22;8828;48.800;9.540;2023-05-08T09:39:51;18.50;99.90
17421;DHT22;8828;48.800;9.540;2023-05-08T09:42:19;18.60;99.90
17421;DHT22;8828;48.800;9.540;2023-05-08T09:44:49;18.70;99.90
17421;DHT22;8828;48.800;9.540;2023-05-08T09:47:18;18.80;99.90
17421;DHT22;8828;48.800;9.540;2023-05-08T09:49:56;18.80;99.90
17421;DHT22;8828;48.800;9.540;2023-05-08T09:52:26;18.90;99.90
17421;DHT22;8828;48.800;9.540;2023-05-08T09:54:58;18.90;99.90
17421;DHT22;8828;48.800;9.540;2023-05-08T09:57:27;18.90;99.90
17421;DHT22;8828;48.800;9.540;2023-05-08T10:00:02;18.90;99.90
17421;DHT22;8828;48.800;9.540;2023-05-08T10:02:31;18.90;99.90
17421;DHT22;8828;48.800;9.540;2023-05-08T10:04:59;18.80;99.90
17421;DHT22;8828;48.800;9.540;2023-05-08T10:07:29;18.90;99.90
17421;DHT22;8828;48.800;9.540;2023-05-08T10:09:57;18.90;99.90
17421;DHT22;8828;48.800;9.540;2023-05-08T10:12:26;18.90;99.90
17421;DHT22;8828;48.800;9.540;2023-05-08T10:14:54;18.90;99.90
17421;DHT22;8828;48.800;9.540;2023-05-08T10:17:24;18.90;99.90
17421;DHT22;8828;48.800;9.540;2023-05-08T10:19:57;18.90;99.90
17421;DHT22;8828;48.800;9.540;2023-05-08T10:22:26;18.90;99.90
17421;DHT22;8828;48.800;9.540;2023-05-08T10:24:56;18.90;99.90
17421;DHT22;8828;48.800;9.540;2023-05-08T10:27:27;18.90;99.90
17421;DHT22;8828;48.800;9.540;2023-05-08T10:29:59;18.90;99.90
17421;DHT22;8828;48.800;9.540;2023-05-08T10:32:27;18.90;99.90
17421;DHT22;8828;48.800;9.540;2023-05-08T10:34:57;18.90;99.90
17421;DHT22;8828;48.800;9.540;2023-05-08T10:37:26;18.90;99.90
17421;DHT22;8828;48.800;9.540;2023-05-08T10:39:57;18.90;99.90
17421;DHT22;8828;48.800;9.540;2023-05-08T10:42:25;18.90;99.90
17421;DHT22;8828;48.800;9.540;2023-05-08T10:44:52;18.90;99.90
17421;DHT22;8828;48.800;9.540;2023-05-08T10:47:21;18.90;99.90
17421;DHT22;8828;48.800;9.540;2023-05-08T10:49:54;18.90;99.90
17421;DHT22;8828;48.800;9.540;2023-05-08T10:52:27;18.90;99.90
17421;DHT22;8828;48.800;9.540;2023-05-08T10:55:08;18.90;99.90
17421;DHT22;8828;48.800;9.540;2023-05-08T11:00:25;18.90;99.90
17421;DHT22;8828;48.800;9.540;2023-05-08T11:03:03;18.90;99.90
17421;DHT22;8828;48.800;9.540;2023-05-08T11:05:43;18.90;99.90
17421;DHT22;8828;48.800;9.540;2023-05-08T11:08:13;18.90;99.90
17421;DHT22;8828;48.800;9.540;2023-05-08T11:10:42;18.90;99.90
17421;DHT22;8828;48.800;9.540;2023-05-08T11:13:11;18.90;99.90
17421;DHT22;8828;48.800;9.540;2023-05-08T11:15:40;19.00;99.90
17421;DHT22;8828;48.800;9.540;2023-05-08T11:18:08;19.00;99.90
17421;DHT22;8828;48.800;9.540;2023-05-08T11:20:37;19.00;99.90
17421;DHT22;8828;48.800;9.540;2023-05-08T11:23:20;19.10;99.90
17421;DHT22;8828;48.800;9.540;2023-05-08T11:25:50;19.10;99.90
17421;DHT22;8828;48.800;9.540;2023-05-08T11:28:25;19.20;99.90
17421;DHT22;8828;48.800;9.540;2023-05-08T11:30:54;19.10;99.90
17421;DHT22;8828;48.800;9.540;2023-05-08T11:33:22;19.10;99.90
17421;DHT22;8828;48.800;9.540;2023-05-08T11:35:51;19.10;99.90
17421;DHT22;8828;48.800;9.540;2023-05-08T11:38:20;19.10;99.90
17421;DHT22;8828;48.800;9.540;2023-05-08T11:40:53;19.00;99.90
17421;DHT22;8828;48.800;9.540;2023-05-08T11:46:14;18.90;99.90
17421;DHT22;8828;48.800;9.540;2023-05-08T11:48:42;18.80;99.90
17421;DHT22;8828;48.800;9.540;2023-05-08T11:51:10;18.80;99.90
17421;DHT22;8828;48.800;9.540;2023-05-08T11:53:39;18.80;99.90
17421;DHT22;8828;48.800;9.540;2023-05-08T11:56:08;18.80;99.90
17421;DHT22;8828;48.800;9.540;2023-05-08T11:58:36;18.80;99.90
17421;DHT22;8828;48.800;9.540;2023-05-08T12:01:03;18.80;99.90
17421;DHT22;8828;48.800;9.540;2023-05-08T12:03:31;18.70;99.90
17421;DHT22;8828;48.800;9.540;2023-05-08T12:05:59;18.70;99.90
17421;DHT22;8828;48.800;9.540;2023-05-08T12:08:27;18.70;99.90
17421;DHT22;8828;48.800;9.540;2023-05-08T12:10:55;18.60;99.90
17421;DHT22;8828;48.800;9.540;2023-05-08T12:13:25;18.60;99.90
17421;DHT22;8828;48.800;9.540;2023-05-08T12:15:54;18.60;99.90
17421;DHT22;8828;48.800;9.540;2023-05-08T12:18:22;18.60;99.90
17421;DHT22;8828;48.800;9.540;2023-05-08T12:20:51;18.60;99.90
17421;DHT22;8828;48.800;9.540;2023-05-08T12:23:19;18.60;99.90
17421;DHT22;8828;48.800;9.540;2023-05-08T12:25:50;18.60;99.90
17421;DHT22;8828;48.800;9.540;2023-05-08T12:28:21;18.60;99.90
17421;DHT22;8828;48.800;9.540;2023-05-08T12:30:50;18.60;99.90
17421;DHT22;8828;48.800;9.540;2023-05-08T12:33:18;18.70;99.90
17421;DHT22;8828;48.800;9.540;2023-05-08T12:35:46;18.70;99.90
17421;DHT22;8828;48.800;9.540;2023-05-08T12:38:14;18.70;99.90
17421;DHT22;8828;48.800;9.540;2023-05-08T12:40:43;18.80;99.90
17421;DHT22;8828;48.800;9.540;2023-05-08T12:43:10;18.90;99.90
17421;DHT22;8828;48.800;9.540;2023-05-08T12:45:39;19.00;99.90
17421;DHT22;8828;48.800;9.540;2023-05-08T12:48:09;19.10;99.90
17421;DHT22;8828;48.800;9.540;2023-05-08T12:50:37;19.20;99.90
17421;DHT22;8828;48.800;9.540;2023-05-08T12:53:06;19.30;99.90
17421;DHT22;8828;48.800;9.540;2023-05-08T12:55:35;19.40;99.90
17421;DHT22;8828;48.800;9.540;2023-05-08T12:58:04;19.40;99.90
17421;DHT22;8828;48.800;9.540;2023-05-08T13:00:35;19.50;99.90
17421;DHT22;8828;48.800;9.540;2023-05-08T13:03:04;19.50;99.90
17421;DHT22;8828;48.800;9.540;2023-05-08T13:05:33;19.60;99.90
17421;DHT22;8828;48.800;9.540;2023-05-08T13:08:02;19.70;99.90
17421;DHT22;8828;48.800;9.540;2023-05-08T13:10:42;19.70;99.90
17421;DHT22;8828;48.800;9.540;2023-05-08T13:13:11;19.80;99.90
17421;DHT22;8828;48.800;9.540;2023-05-08T13:15:39;19.80;99.90
17421;DHT22;8828;48.800;9.540;2023-05-08T13:18:07;19.80;99.90
17421;DHT22;8828;48.800;9.540;2023-05-08T13:20:36;19.70;99.90
17421;DHT22;8828;48.800;9.540;2023-05-08T13:23:04;19.70;99.90
17421;DHT22;8828;48.800;9.540;2023-05-08T13:25:32;19.60;99.90
17421;DHT22;8828;48.800;9.540;2023-05-08T13:28:02;19.60;99.90
17421;DHT22;8828;48.800;9.540;2023-05-08T13:30:30;19.60;99.90
17421;DHT22;8828;48.800;9.540;2023-05-08T13:32:57;19.70;99.90
17421;DHT22;8828;48.800;9.540;2023-05-08T13:35:26;19.80;99.90
17421;DHT22;8828;48.800;9.540;2023-05-08T13:37:55;20.00;99.90
17421;DHT22;8828;48.800;9.540;2023-05-08T13:40:23;20.00;99.90
17421;DHT22;8828;48.800;9.540;2023-05-08T13:42:51;20.10;99.90
17421;DHT22;8828;48.800;9.540;2023-05-08T13:45:19;20.10;99.90
17421;DHT22;8828;48.800;9.540;2023-05-08T13:47:47;20.20;99.90
17421;DHT22;8828;48.800;9.540;2023-05-08T13:50:16;20.20;99.90
17421;DHT22;8828;48.800;9.540;2023-05-08T13:52:44;20.20;99.90
17421;DHT22;8828;48.800;9.540;2023-05-08T13:55:14;20.10;99.90
17421;DHT22;8828;48.800;9.540;2023-05-08T13:57:42;20.10;99.90
17421;DHT22;8828;48.800;9.540;2023-05-08T14:00:10;20.10;99.90
17421;DHT22;8828;48.800;9.540;2023-05-08T14:02:38;20.10;99.90
17421;DHT22;8828;48.800;9.540;2023-05-08T14:05:06;20.10;99.90
17421;DHT22;8828;48.800;9.540;2023-05-08T14:07:34;20.20;99.90
17421;DHT22;8828;48.800;9.540;2023-05-08T14:10:02;20.30;99.90
17421;DHT22;8828;48.800;9.540;2023-05-08T14:12:31;20.40;99.90
17421;DHT22;8828;48.800;9.540;2023-05-08T14:15:02;20.40;99.90
17421;DHT22;8828;48.800;9.540;2023-05-08T14:17:30;20.50;99.90
17421;DHT22;8828;48.800;9.540;2023-05-08T14:19:58;20.60;99.90
17421;DHT22;8828;48.800;9.540;2023-05-08T14:22:26;20.50;99.90
17421;DHT22;8828;48.800;9.540;2023-05-08T14:24:53;20.50;99.90
17421;DHT22;8828;48.800;9.540;2023-05-08T14:27:21;20.50;99.90
17421;DHT22;8828;48.800;9.540;2023-05-08T14:29:50;20.40;99.90
17421;DHT22;8828;48.800;9.540;2023-05-08T14:32:19;20.40;99.90
17421;DHT22;8828;48.800;9.540;2023-05-08T14:34:47;20.20;99.90
17421;DHT22;8828;48.800;9.540;2023-05-08T14:37:15;20.20;99.90
17421;DHT22;8828;48.800;9.540;2023-05-08T14:39:43;20.20;99.90
17421;DHT22;8828;48.800;9.540;2023-05-08T14:42:11;20.10;99.90
17421;DHT22;8828;48.800;9.540;2023-05-08T14:44:50;20.10;99.90
17421;DHT22;8828;48.800;9.540;2023-05-08T14:47:18;20.10;99.90
17421;DHT22;8828;48.800;9.540;2023-05-08T14:49:46;20.00;99.90
17421;DHT22;8828;48.800;9.540;2023-05-08T14:52:14;20.00;99.90
17421;DHT22;8828;48.800;9.540;2023-05-08T14:54:41;20.00;99.90
17421;DHT22;8828;48.800;9.540;2023-05-08T14:57:10;19.90;99.90
17421;DHT22;8828;48.800;9.540;2023-05-08T14:59:37;19.80;99.90
17421;DHT22;8828;48.800;9.540;2023-05-08T15:02:21;19.80;99.90
17421;DHT22;8828;48.800;9.540;2023-05-08T15:04:49;19.70;99.90
17421;DHT22;8828;48.800;9.540;2023-05-08T15:07:17;19.70;99.90
17421;DHT22;8828;48.800;9.540;2023-05-08T15:09:45;19.60;99.90
17421;DHT22;8828;48.800;9.540;2023-05-08T15:12:16;19.60;99.90
17421;DHT22;8828;48.800;9.540;2023-05-08T15:14:44;19.60;99.90
17421;DHT22;8828;48.800;9.540;2023-05-08T15:17:11;19.50;99.90
17421;DHT22;8828;48.800;9.540;2023-05-08T15:19:41;19.50;99.90
17421;DHT22;8828;48.800;9.540;2023-05-08T15:22:08;19.50;99.90
17421;DHT22;8828;48.800;9.540;2023-05-08T15:24:36;19.50;99.90
17421;DHT22;8828;48.800;9.540;2023-05-08T15:27:04;19.40;99.90
17421;DHT22;8828;48.800;9.540;2023-05-08T15:29:32;19.40;99.90
17421;DHT22;8828;48.800;9.540;2023-05-08T15:32:00;19.50;99.90
17421;DHT22;8828;48.800;9.540;2023-05-08T15:34:28;19.40;99.90
17421;DHT22;8828;48.800;9.540;2023-05-08T15:36:59;19.50;99.90
17421;DHT22;8828;48.800;9.540;2023-05-08T15:39:27;19.50;99.90
17421;DHT22;8828;48.800;9.540;2023-05-08T15:41:55;19.50;99.90
17421;DHT22;8828;48.800;9.540;2023-05-08T15:44:23;19.50;99.90
17421;DHT22;8828;48.800;9.540;2023-05-08T15:46:59;19.50;99.90
17421;DHT22;8828;48.800;9.540;2023-05-08T15:49:27;19.50;99.90
17421;DHT22;8828;48.800;9.540;2023-05-08T15:51:55;19.40;99.90
17421;DHT22;8828;48.800;9.540;2023-05-08T15:54:24;19.50;99.90
17421;DHT22;8828;48.800;9.540;2023-05-08T15:56:52;19.50;99.90
17421;DHT22;8828;48.800;9.540;2023-05-08T15:59:20;19.40;99.90
17421;DHT22;8828;48.800;9.540;2023-05-08T16:01:47;19.40;99.90
17421;DHT22;8828;48.800;9.540;2023-05-08T16:04:17;19.40;99.90